sensor_id;sensor_type;location;lat;lon;timestamp;temperature;humidity
75786;DHT22;64402;44.708;37.644;2022-10-31T00:01:29;13.83;97.40
75786;DHT22;64402;44.708;37.644;2022-10-31T00:03:56;13.83;97.20
75786;DHT22;64402;44.708;37.644;2022-10-31T00:06:23;13.88;97.42
75786;DHT22;64402;44.708;37.644;2022-10-31T00:08:54;13.84;97.05
75786;DHT22;64402;44.708;37.644;2022-10-31T00:11:21;13.85;96.76
75786;DHT22;64402;44.708;37.644;2022-10-31T00:13:48;13.89;96.95
75786;DHT22;64402;44.708;37.644;2022-10-31T00:16:20;13.91;97.03
75786;DHT22;64402;44.708;37.644;2022-10-31T00:18:51;13.95;97.21
75786;DHT22;64402;44.708;37.644;2022-10-31T00:21:17;13.95;97.01
75786;DHT22;64402;44.708;37.644;2022-10-31T00:23:44;13.95;96.68
75786;DHT22;64402;44.708;37.644;2022-10-31T00:26:10;13.94;96.87
75786;DHT22;64402;44.708;37.644;2022-10-31T00:28:36;14.01;97.38
75786;DHT22;64402;44.708;37.644;2022-10-31T00:31:07;14.03;97.42
75786;DHT22;64402;44.708;37.644;2022-10-31T00:33:35;14.05;97.22
75786;DHT22;64402;44.708;37.644;2022-10-31T00:36:03;14.09;97.09
75786;DHT22;64402;44.708;37.644;2022-10-31T00:38:30;14.09;96.26
75786;DHT22;64402;44.708;37.644;2022-10-31T00:40:56;14.13;96.06
75786;DHT22;64402;44.708;37.644;2022-10-31T00:43:22;14.19;96.49
75786;DHT22;64402;44.708;37.644;2022-10-31T00:45:49;14.24;96.77
75786;DHT22;64402;44.708;37.644;2022-10-31T00:48:15;14.24;96.57
75786;DHT22;64402;44.708;37.644;2022-10-31T00:50:41;14.29;96.52
75786;DHT22;64402;44.708;37.644;2022-10-31T00:53:08;14.33;96.35
75786;DHT22;64402;44.708;37.644;2022-10-31T00:55:34;14.36;96.26
75786;DHT22;64402;44.708;37.644;2022-10-31T00:58:00;14.36;96.25
75786;DHT22;64402;44.708;37.644;2022-10-31T01:00:26;14.35;96.03
75786;DHT22;64402;44.708;37.644;2022-10-31T01:02:52;14.39;96.16
75786;DHT22;64402;44.708;37.644;2022-10-31T01:05:19;14.40;96.20
75786;DHT22;64402;44.708;37.644;2022-10-31T01:07:45;14.38;96.01
75786;DHT22;64402;44.708;37.644;2022-10-31T01:10:11;14.35;96.27
75786;DHT22;64402;44.708;37.644;2022-10-31T01:12:39;14.34;96.52
75786;DHT22;64402;44.708;37.644;2022-10-31T01:15:06;14.33;96.49
75786;DHT22;64402;44.708;37.644;2022-10-31T01:17:32;14.32;96.59
75786;DHT22;64402;44.708;37.644;2022-10-31T01:19:58;14.32;96.62
75786;DHT22;64402;44.708;37.644;2022-10-31T01:22:24;14.33;96.81
75786;DHT22;64402;44.708;37.644;2022-10-31T01:24:50;14.35;96.60
75786;DHT22;64402;44.708;37.644;2022-10-31T01:27:16;14.38;96.71
75786;DHT22;64402;44.708;37.644;2022-10-31T01:29:43;14.40;96.75
75786;DHT22;64402;44.708;37.644;2022-10-31T01:32:09;14.37;96.35
75786;DHT22;64402;44.708;37.644;2022-10-31T01:34:35;14.37;96.96
75786;DHT22;64402;44.708;37.644;2022-10-31T01:37:01;14.32;96.49
75786;DHT22;64402;44.708;37.644;2022-10-31T01:39:27;14.32;96.45
75786;DHT22;64402;44.708;37.644;2022-10-31T01:41:54;14.36;97.27
75786;DHT22;64402;44.708;37.644;2022-10-31T01:49:34;14.32;97.62
75786;DHT22;64402;44.708;37.644;2022-10-31T01:52:11;14.33;97.54
75786;DHT22;64402;44.708;37.644;2022-10-31T01:54:45;14.25;96.97
75786;DHT22;64402;44.708;37.644;2022-10-31T01:57:14;14.15;97.66
75786;DHT22;64402;44.708;37.644;2022-10-31T01:59:46;14.08;97.65
75786;DHT22;64402;44.708;37.644;2022-10-31T02:02:15;14.12;98.13
75786;DHT22;64402;44.708;37.644;2022-10-31T02:04:42;14.10;97.68
75786;DHT22;64402;44.708;37.644;2022-10-31T02:07:13;14.15;97.74
75786;DHT22;64402;44.708;37.644;2022-10-31T02:09:40;14.21;97.88
75786;DHT22;64402;44.708;37.644;2022-10-31T02:12:10;14.26;97.63
75786;DHT22;64402;44.708;37.644;2022-10-31T02:14:37;14.27;97.19
75786;DHT22;64402;44.708;37.644;2022-10-31T02:17:04;14.23;96.48
75786;DHT22;64402;44.708;37.644;2022-10-31T02:22:26;14.33;96.56
75786;DHT22;64402;44.708;37.644;2022-10-31T02:33:25;14.47;95.84
75786;DHT22;64402;44.708;37.644;2022-10-31T02:41:29;14.52;95.57
75786;DHT22;64402;44.708;37.644;2022-10-31T02:44:21;14.56;96.23
75786;DHT22;64402;44.708;37.644;2022-10-31T02:47:00;14.56;95.59
75786;DHT22;64402;44.708;37.644;2022-10-31T02:52:20;14.62;95.28
75786;DHT22;64402;44.708;37.644;2022-10-31T02:54:48;14.65;95.78
75786;DHT22;64402;44.708;37.644;2022-10-31T02:57:17;14.68;96.20
75786;DHT22;64402;44.708;37.644;2022-10-31T02:59:47;14.68;95.06
75786;DHT22;64402;44.708;37.644;2022-10-31T03:08:31;14.67;92.66
75786;DHT22;64402;44.708;37.644;2022-10-31T03:11:03;14.63;90.56
75786;DHT22;64402;44.708;37.644;2022-10-31T03:13:43;14.72;90.44
75786;DHT22;64402;44.708;37.644;2022-10-31T03:18:51;14.75;88.89
75786;DHT22;64402;44.708;37.644;2022-10-31T03:21:35;14.75;88.06
75786;DHT22;64402;44.708;37.644;2022-10-31T03:24:05;14.77;88.67
75786;DHT22;64402;44.708;37.644;2022-10-31T03:26:32;14.77;89.18
75786;DHT22;64402;44.708;37.644;2022-10-31T03:29:04;14.81;89.18
75786;DHT22;64402;44.708;37.644;2022-10-31T03:31:39;14.80;88.65
75786;DHT22;64402;44.708;37.644;2022-10-31T03:34:07;14.84;89.53
75786;DHT22;64402;44.708;37.644;2022-10-31T03:36:34;14.81;88.99
75786;DHT22;64402;44.708;37.644;2022-10-31T03:39:04;14.85;89.74
75786;DHT22;64402;44.708;37.644;2022-10-31T03:41:37;14.89;89.76
75786;DHT22;64402;44.708;37.644;2022-10-31T03:44:09;14.93;89.36
75786;DHT22;64402;44.708;37.644;2022-10-31T03:46:36;14.98;90.21
75786;DHT22;64402;44.708;37.644;2022-10-31T03:49:03;14.95;89.54
75786;DHT22;64402;44.708;37.644;2022-10-31T03:51:49;14.94;90.45
75786;DHT22;64402;44.708;37.644;2022-10-31T03:57:00;14.88;89.63
75786;DHT22;64402;44.708;37.644;2022-10-31T03:59:36;14.84;89.91
75786;DHT22;64402;44.708;37.644;2022-10-31T04:02:10;14.79;89.58
75786;DHT22;64402;44.708;37.644;2022-10-31T04:04:38;14.77;89.25
75786;DHT22;64402;44.708;37.644;2022-10-31T04:07:06;14.74;88.86
75786;DHT22;64402;44.708;37.644;2022-10-31T04:09:36;14.72;89.31
75786;DHT22;64402;44.708;37.644;2022-10-31T04:12:06;14.68;86.63
75786;DHT22;64402;44.708;37.644;2022-10-31T04:14:37;14.72;86.70
75786;DHT22;64402;44.708;37.644;2022-10-31T04:17:06;14.68;88.35
75786;DHT22;64402;44.708;37.644;2022-10-31T04:19:33;14.66;88.94
75786;DHT22;64402;44.708;37.644;2022-10-31T04:22:00;14.60;86.70
75786;DHT22;64402;44.708;37.644;2022-10-31T04:24:26;14.54;87.09
75786;DHT22;64402;44.708;37.644;2022-10-31T04:26:52;14.54;86.82
75786;DHT22;64402;44.708;37.644;2022-10-31T04:29:18;14.51;86.96
75786;DHT22;64402;44.708;37.644;2022-10-31T04:31:44;14.51;86.30
75786;DHT22;64402;44.708;37.644;2022-10-31T04:34:10;14.47;86.01
75786;DHT22;64402;44.708;37.644;2022-10-31T04:36:36;14.41;86.71
75786;DHT22;64402;44.708;37.644;2022-10-31T04:39:03;14.39;85.93
75786;DHT22;64402;44.708;37.644;2022-10-31T04:41:29;14.41;86.49
75786;DHT22;64402;44.708;37.644;2022-10-31T04:43:55;14.37;87.32
75786;DHT22;64402;44.708;37.644;2022-10-31T04:46:21;14.36;86.30
75786;DHT22;64402;44.708;37.644;2022-10-31T04:48:47;14.37;86.37
75786;DHT22;64402;44.708;37.644;2022-10-31T04:51:13;14.37;87.18
75786;DHT22;64402;44.708;37.644;2022-10-31T04:53:39;14.39;87.81
75786;DHT22;64402;44.708;37.644;2022-10-31T04:56:05;14.41;86.53
75786;DHT22;64402;44.708;37.644;2022-10-31T04:58:32;14.44;85.69
75786;DHT22;64402;44.708;37.644;2022-10-31T05:00:58;14.53;87.17
75786;DHT22;64402;44.708;37.644;2022-10-31T05:03:24;14.53;85.56
75786;DHT22;64402;44.708;37.644;2022-10-31T05:05:50;14.54;86.36
75786;DHT22;64402;44.708;37.644;2022-10-31T05:08:16;14.52;87.75
75786;DHT22;64402;44.708;37.644;2022-10-31T05:10:42;14.48;87.62
75786;DHT22;64402;44.708;37.644;2022-10-31T05:13:09;14.39;86.86
75786;DHT22;64402;44.708;37.644;2022-10-31T05:15:35;14.37;87.56
75786;DHT22;64402;44.708;37.644;2022-10-31T05:18:01;14.32;87.57
75786;DHT22;64402;44.708;37.644;2022-10-31T05:20:28;14.28;87.75
75786;DHT22;64402;44.708;37.644;2022-10-31T05:22:56;14.28;87.09
75786;DHT22;64402;44.708;37.644;2022-10-31T05:25:25;14.30;88.31
75786;DHT22;64402;44.708;37.644;2022-10-31T05:27:52;14.34;87.80
75786;DHT22;64402;44.708;37.644;2022-10-31T05:30:21;14.37;87.98
75786;DHT22;64402;44.708;37.644;2022-10-31T05:32:49;14.42;88.34
75786;DHT22;64402;44.708;37.644;2022-10-31T05:35:22;14.42;86.92
75786;DHT22;64402;44.708;37.644;2022-10-31T05:37:48;14.42;85.71
75786;DHT22;64402;44.708;37.644;2022-10-31T05:40:16;14.42;85.75
75786;DHT22;64402;44.708;37.644;2022-10-31T05:42:43;14.44;85.71
75786;DHT22;64402;44.708;37.644;2022-10-31T05:45:12;14.48;85.24
75786;DHT22;64402;44.708;37.644;2022-10-31T05:47:38;14.57;85.85
75786;DHT22;64402;44.708;37.644;2022-10-31T05:50:06;14.67;85.64
75786;DHT22;64402;44.708;37.644;2022-10-31T05:52:32;14.80;84.45
75786;DHT22;64402;44.708;37.644;2022-10-31T05:54:58;14.99;84.26
75786;DHT22;64402;44.708;37.644;2022-10-31T05:57:24;15.14;83.04
75786;DHT22;64402;44.708;37.644;2022-10-31T05:59:51;15.45;82.94
75786;DHT22;64402;44.708;37.644;2022-10-31T06:02:20;15.72;81.01
75786;DHT22;64402;44.708;37.644;2022-10-31T06:04:46;15.96;80.59
75786;DHT22;64402;44.708;37.644;2022-10-31T06:07:15;16.12;79.14
75786;DHT22;64402;44.708;37.644;2022-10-31T06:09:41;16.26;78.37
75786;DHT22;64402;44.708;37.644;2022-10-31T06:12:07;16.36;77.90
75786;DHT22;64402;44.708;37.644;2022-10-31T06:14:33;16.47;76.46
75786;DHT22;64402;44.708;37.644;2022-10-31T06:17:00;16.63;74.68
75786;DHT22;64402;44.708;37.644;2022-10-31T06:19:26;16.88;75.95
75786;DHT22;64402;44.708;37.644;2022-10-31T06:21:52;17.03;75.14
75786;DHT22;64402;44.708;37.644;2022-10-31T06:24:18;17.29;75.78
75786;DHT22;64402;44.708;37.644;2022-10-31T06:26:44;17.47;74.44
75786;DHT22;64402;44.708;37.644;2022-10-31T06:29:10;17.45;73.41
75786;DHT22;64402;44.708;37.644;2022-10-31T06:31:36;17.46;73.44
75786;DHT22;64402;44.708;37.644;2022-10-31T06:34:02;17.47;73.28
75786;DHT22;64402;44.708;37.644;2022-10-31T06:36:28;17.51;72.51
75786;DHT22;64402;44.708;37.644;2022-10-31T06:38:54;17.51;71.56
75786;DHT22;64402;44.708;37.644;2022-10-31T06:41:21;17.60;71.51
75786;DHT22;64402;44.708;37.644;2022-10-31T06:43:47;17.49;69.93
75786;DHT22;64402;44.708;37.644;2022-10-31T06:46:13;17.49;68.54
75786;DHT22;64402;44.708;37.644;2022-10-31T06:48:42;17.45;66.84
75786;DHT22;64402;44.708;37.644;2022-10-31T06:51:09;17.49;66.22
75786;DHT22;64402;44.708;37.644;2022-10-31T06:53:35;17.80;67.20
75786;DHT22;64402;44.708;37.644;2022-10-31T06:56:01;17.92;66.41
75786;DHT22;64402;44.708;37.644;2022-10-31T06:58:27;18.06;65.53
75786;DHT22;64402;44.708;37.644;2022-10-31T07:00:54;18.19;62.43
75786;DHT22;64402;44.708;37.644;2022-10-31T07:03:20;18.41;64.55
75786;DHT22;64402;44.708;37.644;2022-10-31T07:05:46;18.76;62.57
75786;DHT22;64402;44.708;37.644;2022-10-31T07:08:14;19.26;60.96
75786;DHT22;64402;44.708;37.644;2022-10-31T07:10:42;19.67;60.68
75786;DHT22;64402;44.708;37.644;2022-10-31T07:13:13;19.96;59.94
75786;DHT22;64402;44.708;37.644;2022-10-31T07:15:41;19.94;58.28
75786;DHT22;64402;44.708;37.644;2022-10-31T07:18:10;19.43;57.41
75786;DHT22;64402;44.708;37.644;2022-10-31T07:20:36;19.29;59.78
75786;DHT22;64402;44.708;37.644;2022-10-31T07:23:03;19.48;58.16
75786;DHT22;64402;44.708;37.644;2022-10-31T07:25:29;19.20;59.25
75786;DHT22;64402;44.708;37.644;2022-10-31T07:27:55;19.00;58.91
75786;DHT22;64402;44.708;37.644;2022-10-31T07:30:21;19.33;59.43
75786;DHT22;64402;44.708;37.644;2022-10-31T07:32:49;19.70;59.75
75786;DHT22;64402;44.708;37.644;2022-10-31T07:35:21;20.44;58.83
75786;DHT22;64402;44.708;37.644;2022-10-31T07:37:48;20.56;56.45
75786;DHT22;64402;44.708;37.644;2022-10-31T07:40:16;20.60;54.64
75786;DHT22;64402;44.708;37.644;2022-10-31T07:42:44;20.29;52.80
75786;DHT22;64402;44.708;37.644;2022-10-31T07:45:13;20.29;54.31
75786;DHT22;64402;44.708;37.644;2022-10-31T07:47:45;20.75;51.30
75786;DHT22;64402;44.708;37.644;2022-10-31T07:50:18;21.11;52.50
75786;DHT22;64402;44.708;37.644;2022-10-31T07:52:44;21.88;54.17
75786;DHT22;64402;44.708;37.644;2022-10-31T07:55:11;21.84;52.33
75786;DHT22;64402;44.708;37.644;2022-10-31T07:57:37;21.75;52.72
75786;DHT22;64402;44.708;37.644;2022-10-31T08:00:08;22.25;52.17
75786;DHT22;64402;44.708;37.644;2022-10-31T08:02:34;22.46;51.24
75786;DHT22;64402;44.708;37.644;2022-10-31T08:05:00;22.98;51.15
75786;DHT22;64402;44.708;37.644;2022-10-31T08:07:28;22.87;49.53
75786;DHT22;64402;44.708;37.644;2022-10-31T08:09:55;22.53;52.69
75786;DHT22;64402;44.708;37.644;2022-10-31T08:12:23;22.96;49.61
75786;DHT22;64402;44.708;37.644;2022-10-31T08:14:49;22.86;49.04
75786;DHT22;64402;44.708;37.644;2022-10-31T08:17:16;22.70;49.04
75786;DHT22;64402;44.708;37.644;2022-10-31T08:19:42;22.83;48.72
75786;DHT22;64402;44.708;37.644;2022-10-31T08:22:08;22.82;47.64
75786;DHT22;64402;44.708;37.644;2022-10-31T08:24:35;23.20;47.25
75786;DHT22;64402;44.708;37.644;2022-10-31T08:27:01;23.46;47.51
75786;DHT22;64402;44.708;37.644;2022-10-31T08:29:27;23.77;45.89
75786;DHT22;64402;44.708;37.644;2022-10-31T08:31:53;23.46;45.24
75786;DHT22;64402;44.708;37.644;2022-10-31T08:34:19;23.14;45.40
75786;DHT22;64402;44.708;37.644;2022-10-31T08:36:46;23.06;47.41
75786;DHT22;64402;44.708;37.644;2022-10-31T08:39:13;23.25;45.66
75786;DHT22;64402;44.708;37.644;2022-10-31T08:41:39;23.41;45.00
75786;DHT22;64402;44.708;37.644;2022-10-31T08:44:05;22.94;44.81
75786;DHT22;64402;44.708;37.644;2022-10-31T08:46:34;22.17;45.79
75786;DHT22;64402;44.708;37.644;2022-10-31T08:49:01;21.79;47.05
75786;DHT22;64402;44.708;37.644;2022-10-31T08:51:27;21.93;47.90
75786;DHT22;64402;44.708;37.644;2022-10-31T08:53:54;22.11;47.22
75786;DHT22;64402;44.708;37.644;2022-10-31T08:56:20;22.43;47.24
75786;DHT22;64402;44.708;37.644;2022-10-31T08:58:48;21.74;46.99
75786;DHT22;64402;44.708;37.644;2022-10-31T09:01:14;21.63;46.60
75786;DHT22;64402;44.708;37.644;2022-10-31T09:03:40;20.95;48.12
75786;DHT22;64402;44.708;37.644;2022-10-31T09:06:06;20.85;47.87
75786;DHT22;64402;44.708;37.644;2022-10-31T09:08:35;20.78;48.02
75786;DHT22;64402;44.708;37.644;2022-10-31T09:11:02;20.41;48.83
75786;DHT22;64402;44.708;37.644;2022-10-31T09:13:28;20.04;48.81
75786;DHT22;64402;44.708;37.644;2022-10-31T09:15:56;19.94;49.76
75786;DHT22;64402;44.708;37.644;2022-10-31T09:18:24;19.91;49.21
75786;DHT22;64402;44.708;37.644;2022-10-31T09:20:50;20.33;49.06
75786;DHT22;64402;44.708;37.644;2022-10-31T09:23:19;20.28;48.76
75786;DHT22;64402;44.708;37.644;2022-10-31T09:25:47;19.98;49.08
75786;DHT22;64402;44.708;37.644;2022-10-31T09:28:15;19.77;50.40
75786;DHT22;64402;44.708;37.644;2022-10-31T09:30:41;20.25;48.36
75786;DHT22;64402;44.708;37.644;2022-10-31T09:33:12;20.58;48.01
75786;DHT22;64402;44.708;37.644;2022-10-31T09:35:39;21.50;46.12
75786;DHT22;64402;44.708;37.644;2022-10-31T09:38:09;22.06;45.78
75786;DHT22;64402;44.708;37.644;2022-10-31T09:43:21;22.71;41.84
75786;DHT22;64402;44.708;37.644;2022-10-31T09:46:07;23.31;42.18
75786;DHT22;64402;44.708;37.644;2022-10-31T09:49:04;24.11;38.87
75786;DHT22;64402;44.708;37.644;2022-10-31T09:51:34;24.13;38.46
75786;DHT22;64402;44.708;37.644;2022-10-31T09:56:33;24.49;40.36
75786;DHT22;64402;44.708;37.644;2022-10-31T09:59:02;24.75;38.69
75786;DHT22;64402;44.708;37.644;2022-10-31T10:01:38;23.25;39.27
75786;DHT22;64402;44.708;37.644;2022-10-31T10:04:19;22.68;40.94
75786;DHT22;64402;44.708;37.644;2022-10-31T10:06:49;22.67;41.91
75786;DHT22;64402;44.708;37.644;2022-10-31T10:09:22;23.13;40.88
75786;DHT22;64402;44.708;37.644;2022-10-31T10:17:43;23.66;38.96
75786;DHT22;64402;44.708;37.644;2022-10-31T10:20:28;24.42;38.14
75786;DHT22;64402;44.708;37.644;2022-10-31T10:25:47;24.98;37.19
75786;DHT22;64402;44.708;37.644;2022-10-31T10:30:48;25.33;36.08
75786;DHT22;64402;44.708;37.644;2022-10-31T10:33:21;26.27;34.47
75786;DHT22;64402;44.708;37.644;2022-10-31T10:35:58;27.16;31.57
75786;DHT22;64402;44.708;37.644;2022-10-31T10:38:37;26.60;33.10
75786;DHT22;64402;44.708;37.644;2022-10-31T10:41:10;26.97;31.71
75786;DHT22;64402;44.708;37.644;2022-10-31T10:43:39;26.86;33.14
75786;DHT22;64402;44.708;37.644;2022-10-31T10:49:23;27.78;31.63
75786;DHT22;64402;44.708;37.644;2022-10-31T10:55:12;27.72;30.37
75786;DHT22;64402;44.708;37.644;2022-10-31T11:00:23;28.25;30.49
75786;DHT22;64402;44.708;37.644;2022-10-31T11:02:52;28.15;32.28
75786;DHT22;64402;44.708;37.644;2022-10-31T11:08:36;28.99;27.42
75786;DHT22;64402;44.708;37.644;2022-10-31T11:13:41;28.71;29.78
75786;DHT22;64402;44.708;37.644;2022-10-31T11:19:09;26.99;30.99
75786;DHT22;64402;44.708;37.644;2022-10-31T11:21:40;26.60;32.67
75786;DHT22;64402;44.708;37.644;2022-10-31T11:26:40;26.02;37.30
75786;DHT22;64402;44.708;37.644;2022-10-31T11:29:16;26.24;34.12
75786;DHT22;64402;44.708;37.644;2022-10-31T11:31:56;25.16;35.21
75786;DHT22;64402;44.708;37.644;2022-10-31T11:37:14;23.52;40.31
75786;DHT22;64402;44.708;37.644;2022-10-31T11:39:45;22.81;40.75
75786;DHT22;64402;44.708;37.644;2022-10-31T11:42:21;22.17;42.51
75786;DHT22;64402;44.708;37.644;2022-10-31T11:44:48;22.02;43.29
75786;DHT22;64402;44.708;37.644;2022-10-31T11:47:17;22.19;42.61
75786;DHT22;64402;44.708;37.644;2022-10-31T11:49:45;22.07;43.45
75786;DHT22;64402;44.708;37.644;2022-10-31T11:52:41;21.50;44.94
75786;DHT22;64402;44.708;37.644;2022-10-31T11:55:15;21.08;46.76
75786;DHT22;64402;44.708;37.644;2022-10-31T11:57:51;20.64;48.10
75786;DHT22;64402;44.708;37.644;2022-10-31T12:02:47;20.00;49.61
75786;DHT22;64402;44.708;37.644;2022-10-31T12:05:26;20.44;51.11
75786;DHT22;64402;44.708;37.644;2022-10-31T12:07:59;21.45;47.55
75786;DHT22;64402;44.708;37.644;2022-10-31T12:10:31;20.96;49.37
75786;DHT22;64402;44.708;37.644;2022-10-31T12:15:52;21.68;48.41
75786;DHT22;64402;44.708;37.644;2022-10-31T12:21:17;20.10;52.13
75786;DHT22;64402;44.708;37.644;2022-10-31T12:24:03;19.36;54.14
75786;DHT22;64402;44.708;37.644;2022-10-31T12:26:54;19.13;54.35
75786;DHT22;64402;44.708;37.644;2022-10-31T12:32:37;19.00;56.19
75786;DHT22;64402;44.708;37.644;2022-10-31T12:41:21;18.47;54.36
75786;DHT22;64402;44.708;37.644;2022-10-31T12:43:57;18.46;54.89
75786;DHT22;64402;44.708;37.644;2022-10-31T12:46:35;19.03;53.96
75786;DHT22;64402;44.708;37.644;2022-10-31T12:52:10;20.02;51.41
75786;DHT22;64402;44.708;37.644;2022-10-31T12:54:56;21.42;46.46
75786;DHT22;64402;44.708;37.644;2022-10-31T13:00:15;22.23;43.30
75786;DHT22;64402;44.708;37.644;2022-10-31T13:02:54;21.06;46.47
75786;DHT22;64402;44.708;37.644;2022-10-31T13:05:31;21.60;45.61
75786;DHT22;64402;44.708;37.644;2022-10-31T13:08:18;21.96;44.13
75786;DHT22;64402;44.708;37.644;2022-10-31T13:11:17;21.03;46.20
75786;DHT22;64402;44.708;37.644;2022-10-31T13:14:10;21.63;44.35
75786;DHT22;64402;44.708;37.644;2022-10-31T13:16:42;21.81;44.34
75786;DHT22;64402;44.708;37.644;2022-10-31T13:22:17;22.31;42.85
75786;DHT22;64402;44.708;37.644;2022-10-31T13:24:51;22.35;43.37
75786;DHT22;64402;44.708;37.644;2022-10-31T13:27:22;21.83;43.87
75786;DHT22;64402;44.708;37.644;2022-10-31T13:30:12;20.90;46.50
75786;DHT22;64402;44.708;37.644;2022-10-31T13:33:08;19.72;50.31
75786;DHT22;64402;44.708;37.644;2022-10-31T13:35:55;19.47;51.39
75786;DHT22;64402;44.708;37.644;2022-10-31T13:44:02;21.20;47.58
75786;DHT22;64402;44.708;37.644;2022-10-31T13:49:00;21.20;45.90
75786;DHT22;64402;44.708;37.644;2022-10-31T13:51:29;19.95;48.66
75786;DHT22;64402;44.708;37.644;2022-10-31T13:56:40;19.00;53.43
75786;DHT22;64402;44.708;37.644;2022-10-31T14:01:35;18.87;53.12
75786;DHT22;64402;44.708;37.644;2022-10-31T14:06:40;18.22;54.39
75786;DHT22;64402;44.708;37.644;2022-10-31T14:12:38;17.59;54.62
75786;DHT22;64402;44.708;37.644;2022-10-31T14:15:22;17.36;56.68
75786;DHT22;64402;44.708;37.644;2022-10-31T14:17:58;17.02;57.87
75786;DHT22;64402;44.708;37.644;2022-10-31T14:20:41;16.87;57.90
75786;DHT22;64402;44.708;37.644;2022-10-31T14:23:30;16.86;59.17
75786;DHT22;64402;44.708;37.644;2022-10-31T14:26:34;16.74;59.98
75786;DHT22;64402;44.708;37.644;2022-10-31T14:31:51;16.48;60.27
75786;DHT22;64402;44.708;37.644;2022-10-31T14:51:20;16.28;59.47
75786;DHT22;64402;44.708;37.644;2022-10-31T14:53:53;16.18;58.35
75786;DHT22;64402;44.708;37.644;2022-10-31T14:56:29;16.04;58.44
75786;DHT22;64402;44.708;37.644;2022-10-31T14:58:59;16.04;58.77
75786;DHT22;64402;44.708;37.644;2022-10-31T15:01:31;15.96;59.25
75786;DHT22;64402;44.708;37.644;2022-10-31T15:04:21;15.84;58.48
75786;DHT22;64402;44.708;37.644;2022-10-31T15:06:59;15.83;60.15
75786;DHT22;64402;44.708;37.644;2022-10-31T15:09:30;15.85;59.71
75786;DHT22;64402;44.708;37.644;2022-10-31T15:11:59;15.81;59.72
75786;DHT22;64402;44.708;37.644;2022-10-31T15:14:30;15.73;59.54
75786;DHT22;64402;44.708;37.644;2022-10-31T15:16:58;15.62;59.48
75786;DHT22;64402;44.708;37.644;2022-10-31T15:19:27;15.46;59.53
75786;DHT22;64402;44.708;37.644;2022-10-31T15:21:56;15.43;59.53
75786;DHT22;64402;44.708;37.644;2022-10-31T15:24:33;15.24;59.49
75786;DHT22;64402;44.708;37.644;2022-10-31T15:27:00;15.26;60.09
75786;DHT22;64402;44.708;37.644;2022-10-31T15:29:27;15.22;59.81
75786;DHT22;64402;44.708;37.644;2022-10-31T15:31:58;15.13;60.35
75786;DHT22;64402;44.708;37.644;2022-10-31T15:34:41;15.02;61.22
75786;DHT22;64402;44.708;37.644;2022-10-31T15:37:16;14.81;61.44
75786;DHT22;64402;44.708;37.644;2022-10-31T15:39:44;14.73;61.92
75786;DHT22;64402;44.708;37.644;2022-10-31T15:42:33;14.60;63.15
75786;DHT22;64402;44.708;37.644;2022-10-31T15:47:45;14.35;63.70
75786;DHT22;64402;44.708;37.644;2022-10-31T15:52:58;14.05;63.73
75786;DHT22;64402;44.708;37.644;2022-10-31T15:55:27;13.96;64.33
75786;DHT22;64402;44.708;37.644;2022-10-31T15:57:57;13.94;64.72
75786;DHT22;64402;44.708;37.644;2022-10-31T16:00:29;14.04;64.50
75786;DHT22;64402;44.708;37.644;2022-10-31T16:11:17;14.22;64.95
75786;DHT22;64402;44.708;37.644;2022-10-31T16:16:29;14.20;63.34
75786;DHT22;64402;44.708;37.644;2022-10-31T16:18:57;14.23;63.15
75786;DHT22;64402;44.708;37.644;2022-10-31T16:21:36;14.17;63.57
75786;DHT22;64402;44.708;37.644;2022-10-31T16:24:11;14.17;62.86
75786;DHT22;64402;44.708;37.644;2022-10-31T16:26:39;14.10;63.17
75786;DHT22;64402;44.708;37.644;2022-10-31T16:29:33;14.05;63.02
75786;DHT22;64402;44.708;37.644;2022-10-31T16:32:00;14.01;63.13
75786;DHT22;64402;44.708;37.644;2022-10-31T16:34:26;13.94;62.89
75786;DHT22;64402;44.708;37.644;2022-10-31T16:36:53;13.91;62.55
75786;DHT22;64402;44.708;37.644;2022-10-31T16:39:19;13.86;62.56
75786;DHT22;64402;44.708;37.644;2022-10-31T16:41:48;13.81;63.43
75786;DHT22;64402;44.708;37.644;2022-10-31T16:44:22;13.84;63.51
75786;DHT22;64402;44.708;37.644;2022-10-31T16:47:08;13.76;63.83
75786;DHT22;64402;44.708;37.644;2022-10-31T16:49:34;13.73;63.42
75786;DHT22;64402;44.708;37.644;2022-10-31T16:52:00;13.71;62.28
75786;DHT22;64402;44.708;37.644;2022-10-31T16:54:28;13.70;63.40
75786;DHT22;64402;44.708;37.644;2022-10-31T16:56:55;13.66;63.35
75786;DHT22;64402;44.708;37.644;2022-10-31T16:59:23;13.53;63.34
75786;DHT22;64402;44.708;37.644;2022-10-31T17:01:50;13.54;63.27
75786;DHT22;64402;44.708;37.644;2022-10-31T17:04:17;13.56;63.60
75786;DHT22;64402;44.708;37.644;2022-10-31T17:06:43;13.60;62.77
75786;DHT22;64402;44.708;37.644;2022-10-31T17:09:09;13.62;62.24
75786;DHT22;64402;44.708;37.644;2022-10-31T17:11:36;13.59;62.28
75786;DHT22;64402;44.708;37.644;2022-10-31T17:14:05;13.50;62.50
75786;DHT22;64402;44.708;37.644;2022-10-31T17:16:32;13.48;62.61
75786;DHT22;64402;44.708;37.644;2022-10-31T17:18:58;13.44;62.64
75786;DHT22;64402;44.708;37.644;2022-10-31T17:21:25;13.46;62.34
75786;DHT22;64402;44.708;37.644;2022-10-31T17:23:52;13.36;62.89
75786;DHT22;64402;44.708;37.644;2022-10-31T17:26:19;13.32;62.61
75786;DHT22;64402;44.708;37.644;2022-10-31T17:28:45;13.35;62.37
75786;DHT22;64402;44.708;37.644;2022-10-31T17:31:23;13.31;61.38
75786;DHT22;64402;44.708;37.644;2022-10-31T17:33:54;13.26;60.58
75786;DHT22;64402;44.708;37.644;2022-10-31T17:36:21;13.12;59.06
75786;DHT22;64402;44.708;37.644;2022-10-31T17:38:48;12.95;60.05
75786;DHT22;64402;44.708;37.644;2022-10-31T17:41:15;12.87;60.44
75786;DHT22;64402;44.708;37.644;2022-10-31T17:43:41;12.84;59.76
75786;DHT22;64402;44.708;37.644;2022-10-31T17:46:07;12.79;59.67
75786;DHT22;64402;44.708;37.644;2022-10-31T17:48:35;12.73;60.11
75786;DHT22;64402;44.708;37.644;2022-10-31T17:51:03;12.67;59.57
75786;DHT22;64402;44.708;37.644;2022-10-31T17:53:30;12.62;60.06
75786;DHT22;64402;44.708;37.644;2022-10-31T17:56:06;12.61;60.24
75786;DHT22;64402;44.708;37.644;2022-10-31T17:58:34;12.59;59.38
75786;DHT22;64402;44.708;37.644;2022-10-31T18:01:07;12.52;58.88
75786;DHT22;64402;44.708;37.644;2022-10-31T18:03:36;12.51;59.41
75786;DHT22;64402;44.708;37.644;2022-10-31T18:06:02;12.42;57.93
75786;DHT22;64402;44.708;37.644;2022-10-31T18:08:31;12.35;58.60
75786;DHT22;64402;44.708;37.644;2022-10-31T18:10:57;12.26;57.85